ロンドン/ヒースロー の空港の天気 - METARとTAF

ロンドン・ヒースロー空港 ( EGLL / LHR ) - イギリス ロンドン
飛行場実況気象(Metar)
観測時間10/16 08:50 BST (10/16 07:50 UTC)
風向・風速南南西 4m/s
視程6000m
天気現象弱い雨
全天の8割程度の雲 雲底高度 120m
全天を覆う雲 雲底高度 460m
気温15℃
湿度100%
気圧1000hPa
METAREGLL 160750Z AUTO 21007KT 170V260 6000 -RA BKN004 OVC015 15/15 Q1000 REDZ TEMPO SCT004 BKN006
過去の天気等 Google飛行場航空写真 Wunderground天気予報

過去48時間のMETAR

飛行場予報(TAF)
発表時間: 10/16 07:36 BST (10/16 06:36 UTC)
予報対象時間: 16日7時 BST ~ 17日13時 BST
風向・風速南南東 4m/s
視程10km以上
全天の4割程度の雲 雲底高度 610m
16日7時 BST ~ 16日10時 BST に徐々に
風向・風速西南西 5m/s
16日7時 BST ~ 16日12時 BST に一時的に
視程7000m
天気現象弱い雨
全天の8割程度の雲 雲底高度 300m
16日7時 BST ~ 16日10時 BST に 確率 40% で一時的に
視程3500m
天気現象雨霧雨
全天の8割程度の雲 雲底高度 120m
17日4時 BST ~ 17日7時 BST に徐々に
風向・風速南南東 3m/s
17日10時 BST ~ 17日13時 BST に一時的に
視程7000m
天気現象しゅう雨
TAF AMD EGLL 160636Z 1606/1712 16008KT 9999 SCT020
BECMG 1606/1609 25010KT
TEMPO 1606/1611 7000 -RA BKN010
PROB40 TEMPO 1606/1609 3500 RADZ BKN004
BECMG 1703/1706 16005KT
TEMPO 1709/1712 7000 SHRA